createdAt,value
2019-03-25T00:00:42.310Z,32.53
2019-03-25T00:03:12.020Z,29.20
2019-03-25T00:05:41.119Z,27.10
2019-03-25T00:08:11.128Z,29.52
2019-03-25T00:10:40.020Z,27.40
2019-03-25T00:13:09.935Z,29.07
2019-03-25T00:15:38.829Z,27.37
2019-03-25T00:18:08.334Z,28.53
2019-03-25T00:20:37.222Z,28.60
2019-03-25T00:23:06.114Z,27.60
2019-03-25T00:25:36.129Z,31.67
2019-03-25T00:28:05.021Z,28.53
2019-03-25T00:30:33.915Z,31.40
2019-03-25T00:33:02.804Z,29.53
2019-03-25T00:35:31.697Z,25.07
2019-03-25T00:38:00.917Z,29.90
2019-03-25T00:40:29.784Z,29.73
2019-03-25T00:42:58.677Z,29.27
2019-03-25T00:45:27.670Z,24.25
2019-03-25T00:47:56.564Z,23.47
2019-03-25T00:50:25.452Z,23.85
2019-03-25T00:52:54.343Z,25.50
2019-03-25T00:55:23.234Z,24.70
2019-03-25T00:57:52.126Z,26.87
2019-03-25T01:00:21.123Z,21.90
2019-03-25T01:02:50.013Z,25.20
2019-03-25T01:05:19.628Z,23.85
2019-03-25T01:07:49.145Z,26.07
2019-03-25T01:10:18.528Z,28.50
2019-03-25T01:12:47.818Z,24.20
2019-03-25T01:15:17.328Z,25.15
2019-03-25T01:17:46.255Z,21.63
2019-03-25T01:20:15.237Z,22.23
2019-03-25T01:22:44.112Z,20.70
2019-03-25T01:25:13.921Z,21.80
2019-03-25T01:27:42.815Z,23.67
2019-03-25T01:30:12.629Z,25.93
2019-03-25T01:32:41.519Z,21.27
2019-03-25T01:35:11.777Z,26.65
2019-03-25T01:37:40.633Z,25.97
2019-03-25T01:40:10.679Z,25.30
2019-03-25T01:42:39.746Z,22.63
2019-03-25T01:45:09.658Z,23.07
2019-03-25T01:47:38.551Z,24.13
2019-03-25T01:50:08.452Z,32.03
2019-03-25T01:52:37.383Z,27.33
2019-03-25T01:55:13.333Z,29.10
2019-03-25T01:57:37.292Z,24.10
2019-03-25T02:00:07.922Z,25.37
2019-03-25T02:02:36.818Z,25.90
2019-03-25T02:05:07.014Z,28.10
2019-03-25T02:07:35.824Z,25.57
2019-03-25T02:10:06.626Z,26.50
2019-03-25T02:12:35.553Z,25.57
2019-03-25T02:15:05.059Z,25.10
2019-03-25T02:17:33.953Z,28.17
2019-03-25T02:20:02.945Z,26.57
2019-03-25T02:22:31.873Z,25.23
2019-03-25T02:25:00.832Z,24.47
2019-03-25T02:27:29.720Z,25.83
2019-03-25T02:29:58.611Z,26.73
2019-03-25T02:32:27.606Z,26.67
2019-03-25T02:34:56.499Z,26.57
2019-03-25T02:37:25.391Z,22.22
2019-03-25T02:39:54.278Z,23.23
2019-03-25T02:42:23.188Z,25.57
2019-03-25T02:44:52.059Z,28.57
2019-03-25T02:47:21.050Z,30.40
2019-03-25T02:49:49.949Z,27.07
2019-03-25T02:52:18.838Z,29.90
2019-03-25T02:54:47.729Z,31.47
2019-03-25T02:57:16.615Z,25.52
2019-03-25T02:59:45.541Z,28.03
2019-03-25T03:02:14.400Z,26.42
2019-03-25T03:04:43.291Z,32.97
2019-03-25T03:07:12.183Z,27.62
2019-03-25T03:09:41.071Z,29.27
2019-03-25T03:12:10.786Z,30.45
2019-03-25T03:14:39.677Z,30.80
2019-03-25T03:17:09.569Z,27.60
2019-03-25T03:19:38.485Z,26.63
2019-03-25T03:22:07.663Z,28.73
2019-03-25T03:24:36.572Z,29.83
2019-03-25T03:27:05.573Z,26.85
2019-03-25T03:29:34.584Z,23.87
2019-03-25T03:32:03.400Z,25.60
2019-03-25T03:34:32.270Z,29.23
2019-03-25T03:37:01.238Z,28.60
2019-03-25T03:39:30.124Z,27.27
2019-03-25T03:41:59.016Z,25.83
2019-03-25T03:44:27.921Z,25.60
2019-03-25T03:46:56.802Z,31.63
2019-03-25T03:49:25.699Z,24.40
2019-03-25T03:51:56.109Z,33.37
2019-03-25T03:54:25.113Z,29.70
2019-03-25T03:56:55.713Z,33.90
2019-03-25T03:59:25.180Z,34.10
2019-03-25T04:01:54.143Z,40.00
2019-03-25T04:04:23.031Z,38.13
2019-03-25T04:06:51.920Z,34.17
2019-03-25T04:09:20.829Z,38.83
2019-03-25T04:11:49.809Z,40.50
2019-03-25T04:14:18.697Z,35.60
2019-03-25T04:16:47.594Z,38.93
2019-03-25T04:19:16.580Z,34.17
2019-03-25T04:21:45.472Z,37.47
2019-03-25T04:24:14.362Z,39.73
2019-03-25T04:26:43.256Z,37.53
2019-03-25T04:29:12.363Z,38.13
2019-03-25T04:31:41.244Z,36.53
2019-03-25T04:34:10.850Z,35.07
2019-03-25T04:36:39.843Z,38.30
2019-03-25T04:39:09.875Z,38.93
2019-03-25T04:41:38.753Z,40.93
2019-03-25T04:44:08.766Z,44.15
2019-03-25T04:46:37.659Z,44.13
2019-03-25T04:49:07.464Z,41.25
2019-03-25T04:51:36.364Z,40.70
2019-03-25T04:54:05.255Z,46.60
2019-03-25T04:56:39.915Z,47.13
2019-03-25T04:59:06.210Z,49.10
2019-03-25T05:01:35.136Z,43.83
2019-03-25T05:04:03.993Z,49.63
2019-03-25T05:06:32.883Z,52.03
2019-03-25T05:09:01.880Z,47.37
2019-03-25T05:11:31.109Z,47.13
2019-03-25T05:14:00.072Z,46.43
2019-03-25T05:16:28.962Z,45.73
2019-03-25T05:18:57.855Z,46.00
2019-03-25T05:21:26.744Z,43.67
2019-03-25T05:23:55.635Z,46.65
2019-03-25T05:26:24.529Z,42.47
2019-03-25T05:28:53.416Z,46.97
2019-03-25T05:31:22.314Z,41.92
2019-03-25T05:33:51.201Z,42.97
2019-03-25T05:36:20.091Z,47.00
2019-03-25T05:38:48.982Z,42.30
2019-03-25T05:41:17.876Z,41.53
2019-03-25T05:43:46.762Z,40.63
2019-03-25T05:46:15.656Z,40.43
2019-03-25T05:48:44.554Z,44.30
2019-03-25T05:51:13.436Z,43.15
2019-03-25T05:53:42.329Z,42.97
2019-03-25T05:56:12.360Z,42.83
2019-03-25T05:58:41.236Z,42.07
2019-03-25T06:01:10.996Z,46.80
2019-03-25T06:03:39.841Z,43.67
2019-03-25T06:06:09.652Z,42.98
2019-03-25T06:08:38.542Z,46.70
2019-03-25T06:11:09.175Z,39.10
2019-03-25T06:13:38.066Z,45.33
2019-03-25T06:16:06.909Z,47.33
2019-03-25T06:18:35.745Z,41.40
2019-03-25T06:21:04.638Z,53.57
2019-03-25T06:23:33.529Z,46.20
2019-03-25T06:26:02.419Z,43.37
2019-03-25T06:28:31.311Z,50.00
2019-03-25T06:31:00.305Z,43.83
2019-03-25T06:33:29.198Z,45.43
2019-03-25T06:35:58.087Z,47.20
2019-03-25T06:38:26.980Z,47.45
2019-03-25T06:40:55.869Z,41.60
2019-03-25T06:43:24.759Z,43.80
2019-03-25T06:45:53.708Z,49.70
2019-03-25T06:48:22.644Z,43.87
2019-03-25T06:50:51.643Z,44.67
2019-03-25T06:53:20.527Z,49.97
2019-03-25T06:55:49.524Z,52.40
2019-03-25T06:58:18.419Z,53.23
2019-03-25T07:00:47.306Z,88.43
2019-03-25T07:03:16.195Z,70.80
2019-03-25T07:05:45.210Z,46.77
2019-03-25T07:08:14.080Z,45.48
2019-03-25T07:10:45.223Z,60.90
2019-03-25T07:13:14.116Z,67.03
2019-03-25T07:15:44.187Z,68.97
2019-03-25T07:18:13.436Z,68.07
2019-03-25T07:20:42.328Z,69.67
2019-03-25T07:23:13.980Z,60.28
2019-03-25T07:25:42.871Z,56.57
2019-03-25T07:28:12.172Z,53.50
2019-03-25T07:30:41.069Z,51.07
2019-03-25T07:33:10.979Z,55.85
2019-03-25T07:35:39.871Z,57.07
2019-03-25T07:38:09.102Z,56.47
2019-03-25T07:40:37.962Z,56.27
2019-03-25T07:43:08.368Z,57.70
2019-03-25T07:45:37.385Z,58.67
2019-03-25T07:48:06.274Z,60.77
2019-03-25T07:50:35.166Z,56.33
2019-03-25T07:53:04.056Z,57.80
2019-03-25T07:55:33.070Z,57.47
2019-03-25T07:58:04.503Z,60.43
2019-03-25T08:00:33.419Z,58.50
2019-03-25T08:03:02.303Z,58.07
2019-03-25T08:05:31.287Z,72.40
2019-03-25T08:08:00.165Z,68.30
2019-03-25T08:10:33.574Z,63.80
2019-03-25T08:13:02.725Z,65.87
2019-03-25T08:15:31.971Z,68.70
2019-03-25T08:18:01.268Z,67.00
2019-03-25T08:20:30.155Z,67.00
2019-03-25T08:22:59.150Z,70.70
2019-03-25T08:25:28.041Z,73.87
2019-03-25T08:28:00.165Z,73.60
2019-03-25T08:30:27.704Z,80.63
2019-03-25T08:32:56.558Z,77.20
2019-03-25T08:35:25.451Z,80.90
2019-03-25T08:37:54.341Z,80.93
2019-03-25T08:40:23.336Z,76.63
2019-03-25T08:42:52.224Z,75.17
2019-03-25T08:45:21.114Z,85.37
2019-03-25T08:47:50.013Z,76.63
2019-03-25T08:50:19.014Z,77.07
2019-03-25T08:52:47.893Z,77.07
2019-03-25T08:55:16.779Z,92.80
2019-03-25T08:57:45.670Z,75.23
2019-03-25T09:00:16.114Z,85.40
2019-03-25T09:02:44.991Z,79.03
2019-03-25T09:05:14.092Z,72.63
2019-03-25T09:07:42.977Z,76.63
2019-03-25T09:10:13.156Z,73.35
2019-03-25T09:12:41.995Z,79.30
2019-03-25T09:15:12.521Z,73.52
2019-03-25T09:17:41.412Z,65.60
2019-03-25T09:20:11.009Z,70.60
2019-03-25T09:22:39.917Z,65.40
2019-03-25T09:25:10.590Z,71.70
2019-03-25T09:27:39.537Z,68.53
2019-03-25T09:30:10.442Z,64.07
2019-03-25T09:32:39.262Z,66.60
2019-03-25T09:35:09.177Z,69.60
2019-03-25T09:37:39.081Z,63.90
2019-03-25T09:40:09.850Z,64.37
2019-03-25T09:42:38.824Z,61.20
2019-03-25T09:45:08.727Z,64.03
2019-03-25T09:47:38.146Z,51.70
2019-03-25T09:50:08.237Z,44.93
2019-03-25T09:52:38.839Z,48.63
2019-03-25T09:55:08.889Z,52.37
2019-03-25T09:57:39.589Z,45.50
2019-03-25T10:00:12.271Z,47.90
2019-03-25T10:02:41.110Z,51.60
2019-03-25T10:05:10.653Z,44.45
2019-03-25T10:07:39.509Z,45.90
2019-03-25T10:10:08.711Z,40.70
2019-03-25T10:12:37.596Z,43.77
2019-03-25T10:15:08.702Z,56.30
2019-03-25T10:17:37.530Z,49.33
2019-03-25T10:20:08.119Z,43.10
2019-03-25T10:22:37.052Z,44.53
2019-03-25T10:25:09.518Z,50.30
2019-03-25T10:27:38.422Z,46.13
2019-03-25T10:30:12.459Z,49.63
2019-03-25T10:32:41.425Z,49.23
2019-03-25T10:35:11.789Z,44.13
2019-03-25T10:37:40.643Z,44.87
2019-03-25T10:40:10.592Z,43.20
2019-03-25T10:42:39.449Z,41.27
2019-03-25T10:45:10.694Z,47.63
2019-03-25T10:47:39.585Z,47.47
2019-03-25T10:50:09.489Z,44.87
2019-03-25T10:52:38.492Z,53.30
2019-03-25T10:55:08.069Z,46.30
2019-03-25T10:57:37.094Z,47.10
2019-03-25T11:00:07.785Z,43.60
2019-03-25T11:02:36.620Z,44.73
2019-03-25T11:05:07.366Z,45.40
2019-03-25T11:07:36.424Z,46.03
2019-03-25T11:10:08.129Z,46.27
2019-03-25T11:12:37.097Z,42.87
2019-03-25T11:15:09.876Z,43.27
2019-03-25T11:17:38.771Z,43.20
2019-03-25T11:20:08.385Z,40.23
2019-03-25T11:22:37.374Z,39.30
2019-03-25T11:25:07.761Z,40.40
2019-03-25T11:27:36.691Z,40.97
2019-03-25T11:30:08.089Z,38.93
2019-03-25T11:32:36.930Z,39.50
2019-03-25T11:35:07.509Z,39.77
2019-03-25T11:37:36.355Z,41.87
2019-03-25T11:40:08.799Z,35.93
2019-03-25T11:42:37.719Z,35.80
2019-03-25T11:45:09.519Z,40.67
2019-03-25T11:47:38.518Z,38.80
2019-03-25T11:50:10.438Z,40.80
2019-03-25T11:52:39.325Z,36.83
2019-03-25T11:55:08.525Z,39.33
2019-03-25T11:57:37.413Z,37.90
2019-03-25T12:00:09.943Z,35.95
2019-03-25T12:02:38.884Z,35.40
2019-03-25T12:05:08.999Z,35.20
2019-03-25T12:07:37.900Z,34.03
2019-03-25T12:10:07.654Z,35.20
2019-03-25T12:12:36.596Z,29.30
2019-03-25T12:15:07.331Z,26.83
2019-03-25T12:17:36.325Z,33.00
2019-03-25T12:20:07.161Z,34.63
2019-03-25T12:22:36.087Z,33.23
2019-03-25T12:25:06.790Z,24.43
2019-03-25T12:27:35.685Z,24.77
2019-03-25T12:30:06.620Z,21.97
2019-03-25T12:32:35.512Z,23.50
2019-03-25T12:35:08.351Z,20.27
2019-03-25T12:37:37.287Z,25.83
2019-03-25T12:40:07.904Z,21.13
2019-03-25T12:42:37.118Z,21.13
2019-03-25T12:45:10.695Z,20.83
2019-03-25T12:47:39.608Z,19.97
2019-03-25T12:50:09.733Z,15.97
2019-03-25T12:52:38.640Z,21.33
2019-03-25T12:55:07.927Z,19.63
2019-03-25T12:57:36.812Z,15.63
2019-03-25T13:00:07.552Z,16.93
2019-03-25T13:02:36.437Z,16.50
2019-03-25T13:05:07.332Z,18.27
2019-03-25T13:07:36.166Z,21.00
2019-03-25T13:10:06.470Z,17.93
2019-03-25T13:12:35.384Z,13.03
2019-03-25T13:15:05.181Z,15.53
2019-03-25T13:17:34.085Z,14.23
2019-03-25T13:20:04.612Z,14.13
2019-03-25T13:22:33.510Z,14.77
2019-03-25T13:25:02.400Z,14.57
2019-03-25T13:27:31.287Z,15.90
2019-03-25T13:30:00.285Z,13.37
2019-03-25T13:32:29.377Z,15.30
2019-03-25T13:34:58.268Z,21.40
2019-03-25T13:37:27.159Z,18.73
2019-03-25T13:39:57.460Z,11.70
2019-03-25T13:42:26.380Z,12.50
2019-03-25T13:44:57.609Z,12.20
2019-03-25T13:47:25.899Z,7.75
2019-03-25T13:49:54.693Z,9.77
2019-03-25T13:52:23.579Z,7.33
2019-03-25T13:54:52.468Z,7.73
2019-03-25T13:57:21.361Z,8.50
2019-03-25T13:59:50.251Z,7.80
2019-03-25T14:02:19.146Z,7.10
2019-03-25T14:04:48.055Z,10.70
2019-03-25T14:07:16.924Z,7.30
2019-03-25T14:09:45.815Z,7.20
2019-03-25T14:12:14.706Z,6.67
2019-03-25T14:14:43.607Z,8.17
2019-03-25T14:17:13.702Z,6.35
2019-03-25T14:19:42.613Z,7.50
2019-03-25T14:22:12.219Z,8.03
2019-03-25T14:24:42.133Z,9.37
2019-03-25T14:27:11.229Z,7.67
2019-03-25T14:29:40.119Z,6.30
2019-03-25T14:32:09.816Z,8.68
2019-03-25T14:34:44.777Z,9.17
2019-03-25T14:37:10.071Z,8.93
2019-03-25T14:39:38.962Z,11.63
2019-03-25T14:42:08.879Z,9.60
2019-03-25T14:44:37.770Z,15.93
2019-03-25T14:47:06.571Z,11.83
2019-03-25T14:49:36.681Z,9.80
2019-03-25T14:52:05.573Z,9.70
2019-03-25T14:54:35.898Z,11.93
2019-03-25T14:57:04.891Z,8.40
2019-03-25T14:59:33.885Z,13.23
2019-03-25T15:02:02.770Z,9.43
2019-03-25T15:04:31.662Z,12.57
2019-03-25T15:07:00.552Z,8.63
2019-03-25T15:09:29.450Z,13.97
2019-03-25T15:11:58.335Z,9.27
2019-03-25T15:14:27.329Z,8.43
2019-03-25T15:16:56.327Z,10.77
2019-03-25T15:19:25.214Z,9.90
2019-03-25T15:21:54.110Z,11.07
2019-03-25T15:24:22.995Z,10.25
2019-03-25T15:26:51.890Z,9.00
2019-03-25T15:29:20.779Z,10.70
2019-03-25T15:31:49.672Z,11.40
2019-03-25T15:34:20.098Z,8.23
2019-03-25T15:36:48.991Z,7.63
2019-03-25T15:39:17.888Z,7.43
2019-03-25T15:41:47.328Z,14.23
2019-03-25T15:44:16.380Z,8.15
2019-03-25T15:46:55.349Z,7.63
2019-03-25T15:49:15.885Z,9.93
2019-03-25T15:51:44.694Z,5.57
2019-03-25T15:54:13.588Z,8.38
2019-03-25T15:56:42.476Z,5.57
2019-03-25T15:59:12.084Z,9.13
2019-03-25T16:01:41.077Z,12.23
2019-03-25T16:04:10.480Z,4.83
2019-03-25T16:06:39.370Z,5.80
2019-03-25T16:09:09.507Z,8.83
2019-03-25T16:11:38.379Z,5.40
2019-03-25T16:14:07.987Z,5.17
2019-03-25T16:16:37.112Z,3.87
2019-03-25T16:19:05.978Z,4.87
2019-03-25T16:21:34.845Z,5.03
2019-03-25T16:24:03.656Z,3.63
2019-03-25T16:26:32.552Z,6.17
2019-03-25T16:29:01.437Z,9.57
2019-03-25T16:31:30.371Z,6.10
2019-03-25T16:33:59.219Z,8.83
2019-03-25T16:36:28.112Z,7.77
2019-03-25T16:38:57.003Z,4.93
2019-03-25T16:41:25.898Z,6.67
2019-03-25T16:43:54.700Z,7.77
2019-03-25T16:46:23.576Z,5.05
2019-03-25T16:48:54.978Z,3.33
2019-03-25T16:51:23.098Z,3.58
2019-03-25T16:53:51.987Z,5.87
2019-03-25T16:56:20.881Z,3.90
2019-03-25T16:58:49.770Z,2.80
2019-03-25T17:01:18.662Z,3.87
2019-03-25T17:03:47.553Z,3.77
2019-03-25T17:06:16.552Z,7.17
2019-03-25T17:08:45.437Z,5.67
2019-03-25T17:11:14.387Z,6.97
2019-03-25T17:13:43.329Z,4.00
2019-03-25T17:16:12.213Z,5.50
2019-03-25T17:18:41.160Z,10.80
2019-03-25T17:21:12.625Z,3.67
2019-03-25T17:23:42.982Z,5.27
2019-03-25T17:26:12.078Z,3.03
2019-03-25T17:28:41.075Z,3.57
2019-03-25T17:31:20.562Z,5.60
2019-03-25T17:33:42.847Z,3.57
2019-03-25T17:36:11.945Z,4.62
2019-03-25T17:38:40.841Z,2.40
2019-03-25T17:41:09.832Z,2.75
2019-03-25T17:43:38.721Z,6.03
2019-03-25T17:46:08.532Z,3.50
2019-03-25T17:48:37.428Z,2.73
2019-03-25T17:51:07.338Z,5.20
2019-03-25T17:53:36.230Z,3.80
2019-03-25T17:56:06.964Z,5.00
2019-03-25T17:58:35.760Z,4.00
2019-03-25T18:01:07.625Z,4.20
2019-03-25T18:03:37.941Z,6.40
2019-03-25T18:06:07.858Z,3.33
2019-03-25T18:08:36.852Z,3.33
2019-03-25T18:11:07.106Z,3.30
2019-03-25T18:13:37.395Z,4.97
2019-03-25T18:16:06.324Z,9.63
2019-03-25T18:18:35.181Z,5.07
2019-03-25T18:21:04.072Z,4.27
2019-03-25T18:23:32.959Z,4.53
2019-03-25T18:26:02.977Z,5.97
2019-03-25T18:28:32.049Z,5.70
2019-03-25T18:31:00.866Z,6.73
2019-03-25T18:33:29.753Z,6.40
2019-03-25T18:35:58.656Z,4.57
2019-03-25T18:38:27.637Z,7.63
2019-03-25T18:40:57.964Z,5.23
2019-03-25T18:43:26.856Z,4.90
2019-03-25T18:45:55.743Z,3.53
2019-03-25T18:48:24.637Z,5.50
2019-03-25T18:50:53.529Z,4.00
2019-03-25T18:53:22.417Z,4.83
2019-03-25T18:55:51.531Z,6.63
2019-03-25T18:58:20.406Z,9.93
2019-03-25T19:00:49.313Z,5.00
2019-03-25T19:03:18.626Z,10.17
2019-03-25T19:05:47.722Z,4.60
2019-03-25T19:08:17.714Z,4.90
2019-03-25T19:10:46.961Z,5.17
2019-03-25T19:13:15.800Z,7.53
2019-03-25T19:15:44.712Z,7.40
2019-03-25T19:18:13.591Z,6.43
2019-03-25T19:20:42.481Z,8.87
2019-03-25T19:23:12.288Z,8.45
2019-03-25T19:25:41.202Z,9.47
2019-03-25T19:28:10.384Z,6.30
2019-03-25T19:30:39.270Z,7.70
2019-03-25T19:33:08.689Z,8.17
2019-03-25T19:35:37.679Z,8.10
2019-03-25T19:38:07.485Z,9.60
2019-03-25T19:40:37.873Z,7.03
2019-03-25T19:43:07.664Z,8.57
2019-03-25T19:45:36.519Z,4.40
2019-03-25T19:48:05.499Z,5.00
2019-03-25T19:50:34.413Z,6.07
2019-03-25T19:53:03.285Z,5.33
2019-03-25T19:55:32.206Z,7.50
2019-03-25T19:58:01.103Z,5.83
2019-03-25T20:00:35.798Z,8.60
2019-03-25T20:03:05.093Z,6.50
2019-03-25T20:05:34.189Z,7.23
2019-03-25T20:08:03.275Z,10.50
2019-03-25T20:10:34.398Z,6.80
2019-03-25T20:13:03.325Z,6.17
2019-03-25T20:15:44.949Z,7.23
2019-03-25T20:18:02.931Z,5.60
2019-03-25T20:20:36.043Z,6.60
2019-03-25T20:23:05.342Z,4.73
2019-03-25T20:25:34.238Z,6.00
2019-03-25T20:28:04.455Z,6.57
2019-03-25T20:30:33.346Z,7.10
2019-03-25T20:33:02.345Z,5.37
2019-03-25T20:35:31.285Z,9.67
2019-03-25T20:38:00.263Z,4.40
2019-03-25T20:40:29.172Z,8.98
2019-03-25T20:42:58.073Z,7.97
2019-03-25T20:45:27.096Z,8.27
2019-03-25T20:47:56.061Z,7.57
2019-03-25T20:50:27.239Z,7.47
2019-03-25T20:52:56.051Z,6.63
2019-03-25T20:55:24.919Z,6.67
2019-03-25T20:57:53.853Z,7.47
2019-03-25T21:00:47.919Z,5.93
2019-03-25T21:03:17.221Z,7.00
2019-03-25T21:05:46.221Z,6.27
2019-03-25T21:08:15.291Z,5.33
2019-03-25T21:10:44.351Z,5.47
2019-03-25T21:13:13.475Z,5.22
2019-03-25T21:15:42.382Z,7.47
2019-03-25T21:18:11.459Z,3.62
2019-03-25T21:20:40.349Z,5.43
2019-03-25T21:23:09.958Z,7.87
2019-03-25T21:25:38.876Z,8.17
2019-03-25T21:28:08.051Z,5.57
2019-03-25T21:30:47.479Z,8.43
2019-03-25T21:33:08.593Z,7.50
2019-03-25T21:35:37.587Z,6.33
2019-03-25T21:38:06.527Z,5.00
2019-03-25T21:40:35.370Z,7.63
2019-03-25T21:43:04.259Z,8.10
2019-03-25T21:45:33.152Z,8.50
2019-03-25T21:48:02.154Z,8.90
2019-03-25T21:50:31.302Z,6.33
2019-03-25T21:53:00.133Z,10.37
2019-03-25T21:55:29.233Z,6.70
2019-03-25T21:57:58.208Z,8.60
2019-03-25T22:00:27.116Z,7.20
2019-03-25T22:02:56.003Z,7.03
2019-03-25T22:05:24.894Z,8.13
2019-03-25T22:07:53.925Z,6.37
2019-03-25T22:10:22.780Z,9.40
2019-03-25T22:12:51.675Z,4.87
2019-03-25T22:15:20.664Z,7.20
2019-03-25T22:17:49.556Z,6.80
2019-03-25T22:20:18.552Z,5.40
2019-03-25T22:22:47.443Z,6.03
2019-03-25T22:25:16.434Z,6.67
2019-03-25T22:27:45.429Z,7.53
2019-03-25T22:30:14.813Z,9.83
2019-03-25T22:32:43.621Z,4.87
2019-03-25T22:35:12.921Z,7.07
2019-03-25T22:37:41.816Z,5.00
2019-03-25T22:40:12.140Z,9.43
2019-03-25T22:42:41.027Z,5.13
2019-03-25T22:45:11.046Z,10.28
2019-03-25T22:47:39.939Z,5.87
2019-03-25T22:50:13.825Z,6.45
2019-03-25T22:52:42.706Z,7.17
2019-03-25T22:55:12.755Z,5.40
2019-03-25T22:57:41.645Z,6.77
2019-03-25T23:00:11.574Z,5.73
2019-03-25T23:02:40.451Z,8.13
2019-03-25T23:05:10.041Z,7.17
2019-03-25T23:07:38.848Z,7.03
2019-03-25T23:10:08.644Z,5.80
2019-03-25T23:12:39.345Z,8.93
2019-03-25T23:15:09.313Z,7.60
2019-03-25T23:17:38.204Z,5.37
2019-03-25T23:20:07.487Z,6.53
2019-03-25T23:22:36.399Z,5.80
2019-03-25T23:25:06.586Z,8.07
2019-03-25T23:27:35.714Z,3.10
2019-03-25T23:30:07.111Z,6.57
2019-03-25T23:32:36.321Z,9.83
2019-03-25T23:35:06.499Z,8.53
2019-03-25T23:37:35.379Z,7.60
2019-03-25T23:40:06.063Z,5.40
2019-03-25T23:42:36.024Z,11.43
2019-03-25T23:45:06.947Z,6.90
2019-03-25T23:47:37.390Z,7.30
2019-03-25T23:50:07.405Z,7.00
2019-03-25T23:52:40.560Z,5.80
2019-03-25T23:55:11.054Z,6.93
2019-03-25T23:57:39.915Z,7.77
